createdAt,value
2024-02-29T00:01:05.973Z,16.40
2024-02-29T00:06:09.049Z,14.97
2024-02-29T00:11:14.326Z,15.27
2024-02-29T00:16:17.747Z,17.00
2024-02-29T00:21:20.769Z,15.13
2024-02-29T00:26:25.418Z,13.60
2024-02-29T00:31:28.317Z,12.60
2024-02-29T00:36:31.303Z,14.07
2024-02-29T00:41:35.807Z,13.50
2024-02-29T00:46:39.558Z,12.87
2024-02-29T00:51:42.502Z,14.07
2024-02-29T00:56:46.851Z,15.00
2024-02-29T01:01:49.961Z,16.37
2024-02-29T01:06:53.041Z,15.10
2024-02-29T01:11:57.283Z,12.83
2024-02-29T01:17:00.229Z,15.40
2024-02-29T01:22:03.548Z,15.03
2024-02-29T01:27:08.416Z,14.10
2024-02-29T01:32:18.656Z,13.67
2024-02-29T01:37:25.733Z,13.50
2024-02-29T01:42:30.032Z,14.73
2024-02-29T01:47:32.947Z,14.60
2024-02-29T01:52:40.554Z,15.20
2024-02-29T01:57:45.751Z,14.53
2024-02-29T02:02:48.950Z,14.67
2024-02-29T02:07:52.532Z,13.03
2024-02-29T02:12:56.851Z,12.67
2024-02-29T02:17:59.795Z,14.53
2024-02-29T02:23:04.064Z,14.70
2024-02-29T02:28:07.265Z,15.30
2024-02-29T02:33:12.112Z,14.03
2024-02-29T02:38:16.521Z,14.30
2024-02-29T02:43:19.487Z,14.37
2024-02-29T02:48:22.515Z,12.90
2024-02-29T02:53:26.744Z,15.37
2024-02-29T02:58:29.689Z,15.40
2024-02-29T03:03:33.211Z,14.03
2024-02-29T03:08:37.574Z,13.53
2024-02-29T03:13:40.898Z,14.30
2024-02-29T03:18:43.846Z,14.30
2024-02-29T03:23:48.490Z,13.43
2024-02-29T03:28:51.385Z,13.67
2024-02-29T03:33:54.285Z,14.20
2024-02-29T03:38:59.100Z,14.53
2024-02-29T03:44:02.063Z,13.80
2024-02-29T03:49:05.289Z,12.40
2024-02-29T03:54:09.738Z,12.63
2024-02-29T03:59:12.630Z,11.57
2024-02-29T04:04:15.622Z,12.00
2024-02-29T04:09:19.879Z,12.20
2024-02-29T04:14:22.804Z,11.60
2024-02-29T04:19:25.681Z,11.20
2024-02-29T04:24:29.972Z,11.10
2024-02-29T04:29:32.998Z,10.73
2024-02-29T04:34:35.900Z,11.87
2024-02-29T04:39:40.177Z,12.50
2024-02-29T04:44:43.262Z,10.70
2024-02-29T04:49:46.151Z,12.03
2024-02-29T04:54:50.670Z,13.07
2024-02-29T04:59:53.689Z,11.70
2024-02-29T05:04:56.596Z,13.33
2024-02-29T05:10:00.959Z,13.63
2024-02-29T05:15:04.372Z,13.60
2024-02-29T05:20:09.037Z,13.63
2024-02-29T05:25:14.717Z,14.43
2024-02-29T05:30:17.946Z,12.43
2024-02-29T05:35:23.678Z,12.70
2024-02-29T05:40:28.863Z,13.80
2024-02-29T05:45:31.823Z,13.33
2024-02-29T05:50:34.770Z,12.43
2024-02-29T05:55:39.197Z,14.30
2024-02-29T06:00:42.263Z,12.63
2024-02-29T06:05:45.196Z,13.33
2024-02-29T06:10:50.266Z,14.80
2024-02-29T06:15:53.363Z,12.10
2024-02-29T06:20:56.274Z,13.50
2024-02-29T06:26:01.342Z,14.40
2024-02-29T06:31:04.443Z,15.20
2024-02-29T06:36:10.134Z,14.93
2024-02-29T06:41:14.742Z,17.70
2024-02-29T06:46:18.271Z,15.60
2024-02-29T06:51:21.315Z,15.47
2024-02-29T06:56:25.585Z,13.83
2024-02-29T07:01:28.598Z,12.57
2024-02-29T07:06:31.707Z,14.33
2024-02-29T07:11:36.061Z,15.30
2024-02-29T07:16:39.750Z,23.13
2024-02-29T07:21:43.488Z,25.97
2024-02-29T07:26:47.827Z,25.40
2024-02-29T07:31:54.922Z,18.10
2024-02-29T07:36:58.100Z,18.73
2024-02-29T07:42:02.374Z,16.80
2024-02-29T07:47:05.560Z,16.90
2024-02-29T07:52:08.461Z,19.57
2024-02-29T07:57:13.002Z,14.43
2024-02-29T08:02:15.955Z,16.23
2024-02-29T08:07:19.267Z,14.90
2024-02-29T08:12:23.587Z,15.70
2024-02-29T08:17:28.270Z,16.97
2024-02-29T08:22:31.351Z,15.60
2024-02-29T08:27:36.613Z,16.00
2024-02-29T08:32:39.591Z,21.57
2024-02-29T08:37:43.825Z,17.37
2024-02-29T08:42:48.148Z,16.00
2024-02-29T08:47:51.340Z,19.57
2024-02-29T08:52:54.335Z,27.40
2024-02-29T08:57:59.432Z,23.60
2024-02-29T09:03:02.365Z,27.47
2024-02-29T09:08:05.563Z,26.30
2024-02-29T09:13:20.531Z,17.70
2024-02-29T09:18:32.808Z,21.80
2024-02-29T09:23:35.693Z,15.87
2024-02-29T09:28:39.969Z,16.47
2024-02-29T09:33:43.239Z,14.87
2024-02-29T09:38:46.316Z,14.50
2024-02-29T09:43:51.068Z,13.30
2024-02-29T09:48:54.425Z,13.13
2024-02-29T09:53:58.592Z,15.57
2024-02-29T09:59:04.053Z,14.37
2024-02-29T10:04:07.916Z,15.60
2024-02-29T10:09:11.153Z,15.30
2024-02-29T10:14:31.877Z,14.70
2024-02-29T10:19:34.893Z,16.63
2024-02-29T10:24:37.836Z,17.30
2024-02-29T10:29:43.001Z,17.07
2024-02-29T10:34:47.390Z,16.80
2024-02-29T10:39:51.055Z,16.90
2024-02-29T10:44:57.578Z,20.70
2024-02-29T10:50:05.940Z,22.37
2024-02-29T10:55:14.261Z,18.33
2024-02-29T11:00:18.774Z,17.67
2024-02-29T11:05:22.734Z,17.90
2024-02-29T11:10:26.098Z,17.13
2024-02-29T11:15:30.328Z,20.53
2024-02-29T11:20:35.027Z,17.87
2024-02-29T11:25:43.452Z,18.27
2024-02-29T11:30:52.603Z,17.67
2024-02-29T11:35:57.092Z,13.73
2024-02-29T11:41:00.001Z,14.20
2024-02-29T11:46:11.042Z,13.13
2024-02-29T11:51:13.969Z,13.37
2024-02-29T11:56:17.227Z,12.53
2024-02-29T12:01:24.770Z,12.13
2024-02-29T12:06:28.498Z,11.53
2024-02-29T12:11:33.670Z,13.17
2024-02-29T12:16:40.288Z,11.80
2024-02-29T12:21:44.623Z,12.20
2024-02-29T12:26:50.031Z,11.63
2024-02-29T12:31:54.385Z,11.47
2024-02-29T12:36:58.014Z,12.50
2024-02-29T12:42:01.319Z,11.73
2024-02-29T12:47:06.001Z,11.47
2024-02-29T12:52:08.973Z,11.43
2024-02-29T12:57:12.271Z,10.43
2024-02-29T13:02:17.292Z,9.87
2024-02-29T13:07:20.665Z,10.07
2024-02-29T13:12:23.683Z,9.67
2024-02-29T13:17:27.999Z,10.63
2024-02-29T13:22:30.909Z,10.73
2024-02-29T13:27:34.297Z,9.33
2024-02-29T13:32:38.573Z,10.83
2024-02-29T13:37:42.346Z,9.30
2024-02-29T13:42:45.847Z,8.83
2024-02-29T13:47:52.097Z,10.30
2024-02-29T13:52:55.314Z,9.17
2024-02-29T13:57:58.447Z,10.63
2024-02-29T14:03:02.689Z,10.50
2024-02-29T14:08:06.334Z,10.60
2024-02-29T14:13:09.268Z,10.67
2024-02-29T14:18:14.524Z,11.60
2024-02-29T14:23:17.666Z,10.50
2024-02-29T14:28:21.185Z,10.90
2024-02-29T14:33:25.513Z,10.07
2024-02-29T14:38:28.847Z,11.20
2024-02-29T14:43:31.797Z,9.83
2024-02-29T14:48:36.173Z,9.80
2024-02-29T14:53:39.033Z,10.10
2024-02-29T14:58:41.941Z,10.70
2024-02-29T15:03:46.239Z,12.17
2024-02-29T15:08:49.278Z,13.00
2024-02-29T15:13:52.251Z,14.50
2024-02-29T15:18:56.617Z,14.97
2024-02-29T15:23:59.553Z,15.90
2024-02-29T15:29:02.529Z,14.90
2024-02-29T15:34:06.823Z,15.57
2024-02-29T15:39:09.778Z,13.40
2024-02-29T15:44:12.699Z,14.90
2024-02-29T15:49:17.206Z,16.87
2024-02-29T15:54:20.157Z,16.43
2024-02-29T15:59:23.158Z,16.20
2024-02-29T16:04:27.577Z,15.40
2024-02-29T16:09:31.483Z,16.27
2024-02-29T16:14:34.473Z,16.73
2024-02-29T16:19:38.758Z,19.10
2024-02-29T16:24:41.800Z,19.50
2024-02-29T16:29:44.826Z,17.37
2024-02-29T16:34:49.067Z,16.40
2024-02-29T16:39:52.171Z,14.80
2024-02-29T16:44:55.942Z,17.40
2024-02-29T16:50:00.633Z,17.13
2024-02-29T16:55:03.606Z,18.30
2024-02-29T17:00:09.888Z,16.73
2024-02-29T17:05:14.614Z,19.30
2024-02-29T17:10:17.704Z,18.17
2024-02-29T17:15:20.797Z,19.43
2024-02-29T17:20:25.146Z,19.37
2024-02-29T17:25:28.190Z,18.03
2024-02-29T17:30:31.099Z,15.83
2024-02-29T17:35:36.852Z,17.80
2024-02-29T17:40:39.745Z,17.90
2024-02-29T17:45:43.065Z,20.20
2024-02-29T17:50:47.379Z,21.73
2024-02-29T17:55:50.308Z,17.53
2024-02-29T18:00:53.332Z,19.80
2024-02-29T18:05:57.657Z,22.90
2024-02-29T18:11:00.624Z,20.80
2024-02-29T18:16:03.617Z,20.37
2024-02-29T18:21:08.110Z,20.10
2024-02-29T18:26:12.931Z,19.87
2024-02-29T18:31:15.947Z,16.70
2024-02-29T18:36:20.232Z,18.10
2024-02-29T18:41:23.211Z,16.13
2024-02-29T18:46:26.123Z,18.37
2024-02-29T18:51:30.599Z,16.07
2024-02-29T18:56:33.524Z,16.40
2024-02-29T19:01:36.699Z,16.00
2024-02-29T19:06:41.152Z,17.23
2024-02-29T19:11:44.087Z,16.03
2024-02-29T19:16:47.136Z,17.40
2024-02-29T19:21:51.474Z,15.07
2024-02-29T19:26:54.671Z,15.37
2024-02-29T19:31:57.616Z,14.83
2024-02-29T19:37:01.956Z,15.30
2024-02-29T19:42:05.339Z,15.27
2024-02-29T19:47:08.461Z,15.70
2024-02-29T19:52:12.789Z,15.50
2024-02-29T19:57:15.732Z,17.13
2024-02-29T20:02:18.660Z,20.80
2024-02-29T20:07:23.374Z,21.30
2024-02-29T20:12:26.422Z,20.40
2024-02-29T20:17:29.288Z,20.60
2024-02-29T20:22:33.571Z,23.00
2024-02-29T20:27:37.249Z,24.00
2024-02-29T20:32:41.527Z,20.67
2024-02-29T20:37:46.435Z,23.70
2024-02-29T20:42:49.597Z,20.67
2024-02-29T20:47:52.593Z,23.70
2024-02-29T20:52:56.912Z,23.17
2024-02-29T20:57:59.870Z,22.27
2024-02-29T21:03:04.166Z,23.20
2024-02-29T21:08:08.700Z,22.57
2024-02-29T21:13:13.569Z,21.07
2024-02-29T21:18:17.212Z,26.00
2024-02-29T21:23:21.549Z,27.30
2024-02-29T21:28:24.455Z,29.90
2024-02-29T21:33:27.462Z,30.40
2024-02-29T21:38:31.827Z,32.60
2024-02-29T21:43:35.004Z,28.70
2024-02-29T21:48:37.986Z,30.30
2024-02-29T21:53:42.254Z,28.10
2024-02-29T21:58:45.282Z,29.33
2024-02-29T22:03:48.243Z,28.77
2024-02-29T22:08:52.736Z,33.00
2024-02-29T22:13:57.231Z,33.07
2024-02-29T22:19:00.186Z,31.03
2024-02-29T22:24:05.408Z,31.60
2024-02-29T22:29:08.332Z,32.27
2024-02-29T22:34:11.982Z,36.67
2024-02-29T22:39:16.305Z,36.50
2024-02-29T22:44:19.182Z,37.33
2024-02-29T22:49:22.259Z,36.00
2024-02-29T22:54:26.551Z,35.60
2024-02-29T22:59:29.498Z,36.50
2024-02-29T23:04:33.617Z,35.13
2024-02-29T23:09:37.920Z,35.57
2024-02-29T23:14:40.941Z,35.37
2024-02-29T23:19:43.923Z,36.43
2024-02-29T23:24:49.075Z,37.00
2024-02-29T23:29:52.002Z,36.20
2024-02-29T23:34:55.332Z,37.83
2024-02-29T23:39:59.661Z,36.53
2024-02-29T23:45:02.588Z,36.40
2024-02-29T23:50:06.801Z,37.67
2024-02-29T23:55:11.893Z,35.87
